Time;durP1;ratioP1;P1;durP2;ratioP2;P2;SDS_P1;SDS_P2;PMS_P1;PMS_P2;Temp;Humidity;BMP_temperature;BMP_pressure;BME280_temperature;BME280_humidity;BME280_pressure;Samples;Min_cycle;Max_cycle;Signal;HPM_P1;HPM_P2
2021/06/14 00:00:57;;;;;;;3.17;1.57;;;;;;;17.72;67.89;99876.37;1826084;77;22203;-60
2021/06/14 00:03:44;;;;;;;4.28;1.62;;;;;;;17.70;67.88;99884.44;1769072;80;21118;-60
2021/06/14 00:06:17;;;;;;;2.27;1.60;;;;;;;17.79;67.71;99877.78;1820561;77;22189;-60
2021/06/14 00:08:50;;;;;;;4.47;2.08;;;;;;;17.75;67.57;99873.55;1826302;77;22143;-60
2021/06/14 00:11:23;;;;;;;3.90;1.82;;;;;;;17.76;67.63;99873.95;1814971;77;22613;-60
2021/06/14 00:13:56;;;;;;;3.27;1.82;;;;;;;17.70;67.79;99861.82;1820729;77;22187;-60
2021/06/14 00:16:30;;;;;;;2.15;1.52;;;;;;;17.70;67.78;99872.47;1796478;77;22152;-59
2021/06/14 00:19:16;;;;;;;2.87;1.60;;;;;;;17.65;67.85;99882.02;1786329;80;21154;-61
2021/06/14 00:21:50;;;;;;;3.60;1.50;;;;;;;17.65;67.91;99876.70;1811938;77;22171;-60
2021/06/14 00:24:23;;;;;;;2.40;1.67;;;;;;;17.63;67.86;99880.36;1815940;77;22246;-60
2021/06/14 00:26:56;;;;;;;4.45;2.00;;;;;;;17.68;67.80;99874.34;1834504;77;22176;-60
2021/06/14 00:29:41;;;;;;;3.20;1.80;;;;;;;17.69;67.83;99875.58;1761238;80;21150;-60
2021/06/14 00:32:15;;;;;;;3.92;1.87;;;;;;;17.74;67.75;99879.81;1833057;77;22200;-60
2021/06/14 00:34:48;;;;;;;2.37;1.80;;;;;;;17.78;67.86;99874.73;1824289;77;22190;-59
2021/06/14 00:37:35;;;;;;;4.67;2.25;;;;;;;17.78;67.81;99878.73;1761500;81;21146;-60
2021/06/14 00:40:10;;;;;;;4.60;2.10;;;;;;;17.85;67.73;99870.83;1821956;77;22181;-60
2021/06/14 00:42:44;;;;;;;3.30;2.30;;;;;;;17.89;67.74;99870.19;1826850;77;22155;-59
2021/06/14 00:45:21;;;;;;;5.50;2.20;;;;;;;17.91;67.68;99873.63;1835544;77;22201;-60
2021/06/14 00:48:08;;;;;;;3.47;2.72;;;;;;;17.87;67.68;99868.95;1788022;80;21598;-60
2021/06/14 00:50:46;;;;;;;5.58;2.47;;;;;;;17.91;67.68;99869.19;1812049;77;22210;-60
2021/06/14 00:53:29;;;;;;;4.20;2.50;;;;;;;17.93;67.70;99872.63;1830515;77;22162;-60
2021/06/14 00:56:23;;;;;;;3.80;2.70;;;;;;;17.95;67.79;99867.22;1806010;77;22308;-59
2021/06/14 00:58:57;;;;;;;4.60;2.55;;;;;;;17.98;67.62;99872.38;1805299;77;22197;-60
2021/06/14 01:01:30;;;;;;;4.42;2.62;;;;;;;18.00;67.66;99873.20;1812543;77;22182;-58
2021/06/14 01:04:04;;;;;;;4.83;2.52;;;;;;;18.05;67.61;99869.84;1830599;77;22187;-60
2021/06/14 01:06:50;;;;;;;4.90;2.80;;;;;;;18.09;67.43;99882.05;1762492;81;21125;-62
2021/06/14 01:09:23;;;;;;;6.33;2.72;;;;;;;18.10;67.45;99875.78;1812738;77;22281;-60
2021/06/14 01:12:05;;;;;;;6.10;3.27;;;;;;;18.08;67.46;99873.67;1818474;77;22182;-58
2021/06/14 01:15:02;;;;;;;7.75;3.33;;;;;;;18.06;67.37;99882.70;1765446;80;21515;-59
2021/06/14 01:17:45;;;;;;;4.75;2.70;;;;;;;18.07;67.27;99879.94;1840924;77;22179;-60
2021/06/14 01:20:32;;;;;;;5.08;3.10;;;;;;;18.04;67.26;99879.25;1817519;77;22633;-59
2021/06/14 01:24:00;;;;;;;5.60;2.92;;;;;;;18.00;67.32;99882.52;1833657;77;22167;-59
2021/06/14 01:26:59;;;;;;;3.47;2.37;;;;;;;17.98;67.23;99877.71;1811727;77;22142;-58
2021/06/14 01:29:34;;;;;;;7.80;2.77;;;;;;;18.01;67.26;99871.42;1827769;77;22206;-60
2021/06/14 01:32:08;;;;;;;6.37;2.83;;;;;;;17.96;67.27;99867.61;1833708;77;22163;-60
2021/06/14 01:34:47;;;;;;;6.22;2.92;;;;;;;17.93;67.25;99866.43;1806461;77;22651;-58
2021/06/14 01:37:35;;;;;;;6.78;2.80;;;;;;;17.87;67.35;99870.77;1760862;80;21855;-62
2021/06/14 01:40:10;;;;;;;6.58;4.03;;;;;;;17.89;67.43;99867.52;1821811;77;28100;-58
2021/06/14 01:42:44;;;;;;;6.05;3.50;;;;;;;17.90;67.48;99866.59;1815056;77;22607;-60
2021/06/14 01:45:32;;;;;;;5.40;2.90;;;;;;;17.90;67.53;99865.25;1766865;80;21302;-61
2021/06/14 01:48:06;;;;;;;6.67;3.05;;;;;;;17.96;67.43;99864.49;1811565;77;22166;-60
2021/06/14 01:50:39;;;;;;;4.33;2.60;;;;;;;17.96;67.49;99855.63;1812620;77;22654;-60
2021/06/14 01:53:14;;;;;;;8.63;3.10;;;;;;;18.00;67.31;99855.05;1787281;77;22533;-58
2021/06/14 01:56:00;;;;;;;5.28;3.05;;;;;;;17.96;67.30;99857.84;1735316;81;21727;-59
2021/06/14 01:58:35;;;;;;;5.15;2.85;;;;;;;18.03;67.19;99855.73;1821991;77;22181;-60
2021/06/14 02:01:09;;;;;;;7.47;3.15;;;;;;;18.05;67.27;99861.00;1797908;77;22184;-60
2021/06/14 02:03:58;;;;;;;5.50;3.17;;;;;;;18.04;67.28;99863.27;1741227;81;21123;-59
2021/06/14 02:06:35;;;;;;;8.53;5.17;;;;;;;18.07;67.33;99859.97;1816251;77;27957;-60
2021/06/14 02:09:11;;;;;;;4.87;3.47;;;;;;;18.07;67.47;99861.78;1814300;77;22178;-60
2021/06/14 02:12:01;;;;;;;7.83;3.90;;;;;;;18.06;67.50;99859.58;1740083;81;21284;-61
2021/06/14 02:14:38;;;;;;;6.28;3.80;;;;;;;18.08;67.35;99860.84;1813192;77;22174;-61
2021/06/14 02:17:18;;;;;;;5.40;3.55;;;;;;;18.07;67.53;99865.78;1834600;77;22584;-58
2021/06/14 02:20:06;;;;;;;4.92;3.27;;;;;;;18.03;67.49;99873.53;1764534;80;21134;-60
2021/06/14 02:22:40;;;;;;;5.12;3.58;;;;;;;18.06;67.40;99872.89;1817274;77;22178;-58
2021/06/14 02:25:14;;;;;;;7.58;3.62;;;;;;;18.04;67.48;99868.11;1818598;77;22206;-58
2021/06/14 02:27:47;;;;;;;7.78;4.05;;;;;;;18.05;67.47;99871.66;1810158;77;22186;-60
2021/06/14 02:30:33;;;;;;;6.90;3.47;;;;;;;18.04;67.16;99871.27;1742891;81;21182;-62
2021/06/14 02:33:06;;;;;;;6.83;4.10;;;;;;;18.06;67.17;99863.57;1819710;77;22140;-58
2021/06/14 02:35:40;;;;;;;10.03;4.47;;;;;;;18.04;67.20;99864.13;1812571;77;22214;-60
2021/06/14 02:38:13;;;;;;;7.22;4.03;;;;;;;18.04;67.24;99868.11;1829929;77;22134;-58
2021/06/14 02:40:58;;;;;;;5.92;3.58;;;;;;;18.00;67.25;99875.02;1775872;80;21169;-58
2021/06/14 02:43:31;;;;;;;8.28;3.72;;;;;;;18.01;67.28;99861.61;1811751;77;22182;-58
2021/06/14 02:46:05;;;;;;;7.12;3.98;;;;;;;18.03;67.22;99858.41;1802505;77;22256;-58
2021/06/14 02:48:44;;;;;;;9.55;4.08;;;;;;;17.98;67.22;99852.41;1836040;77;22190;-57
2021/06/14 02:51:31;;;;;;;5.92;3.85;;;;;;;17.91;67.33;99863.86;1761429;81;21146;-61
2021/06/14 02:54:08;;;;;;;7.55;4.25;;;;;;;17.92;67.35;99866.92;1852178;77;22175;-61
2021/06/14 02:56:41;;;;;;;6.00;3.60;;;;;;;17.83;67.84;99866.05;1826847;77;22156;-59
2021/06/14 02:59:16;;;;;;;7.70;4.83;;;;;;;17.82;67.96;99863.00;1808530;77;22135;-58
2021/06/14 03:02:04;;;;;;;7.72;4.15;;;;;;;17.84;67.93;99868.66;1758278;81;21269;-62
2021/06/14 03:04:37;;;;;;;8.68;4.30;;;;;;;17.95;67.74;99856.11;1789340;77;22231;-58
2021/06/14 03:07:10;;;;;;;7.10;4.05;;;;;;;17.94;67.88;99854.39;1810254;77;22605;-61
2021/06/14 03:09:57;;;;;;;7.55;3.92;;;;;;;17.94;67.75;99854.39;1774685;80;21138;-60
2021/06/14 03:12:30;;;;;;;10.28;4.33;;;;;;;17.90;67.89;99846.17;1827168;77;22180;-58
2021/06/14 03:15:05;;;;;;;6.03;3.85;;;;;;;17.93;67.97;99847.80;1798498;77;22232;-61
2021/06/14 03:17:53;;;;;;;5.47;3.45;;;;;;;17.85;68.14;99858.84;1762990;81;21162;-62
2021/06/14 03:20:26;;;;;;;7.83;4.03;;;;;;;17.94;68.07;99847.73;1815654;77;22214;-60
2021/06/14 03:22:59;;;;;;;5.95;3.98;;;;;;;18.03;67.90;99846.42;1842873;77;22140;-58
2021/06/14 03:25:32;;;;;;;7.03;4.12;;;;;;;18.08;67.84;99847.53;1796736;77;22246;-57
2021/06/14 03:28:06;;;;;;;7.45;3.75;;;;;;;17.96;68.29;99850.30;1822559;77;22189;-58
2021/06/14 03:30:40;;;;;;;8.08;4.03;;;;;;;18.07;68.10;99842.66;1830630;77;22193;-60
2021/06/14 03:33:26;;;;;;;7.75;4.83;;;;;;;18.11;67.96;99846.89;1781583;80;21274;-62
2021/06/14 03:35:59;;;;;;;5.92;3.52;;;;;;;18.16;67.92;99848.45;1807639;77;22657;-60
2021/06/14 03:38:33;;;;;;;5.85;3.75;;;;;;;18.16;68.00;99849.30;1852837;77;22175;-61
2021/06/14 03:41:19;;;;;;;9.48;4.00;;;;;;;18.16;67.89;99866.61;1791330;78;21576;-62
2021/06/14 03:43:52;;;;;;;5.20;3.70;;;;;;;18.24;67.91;99864.89;1834517;77;22176;-60
2021/06/14 03:46:25;;;;;;;9.60;4.53;;;;;;;18.29;67.86;99869.52;1820016;77;22209;-61
2021/06/14 03:49:11;;;;;;;6.33;3.90;;;;;;;18.29;67.84;99878.84;1792330;80;21161;-61
2021/06/14 03:51:45;;;;;;;5.78;3.77;;;;;;;18.39;67.86;99869.39;1824137;77;22531;-58
2021/06/14 03:54:18;;;;;;;10.65;4.42;;;;;;;18.46;67.81;99874.40;1830984;77;22693;-60
2021/06/14 03:56:51;;;;;;;7.70;4.53;;;;;;;18.41;67.98;99866.66;1834516;77;22176;-57
2021/06/14 03:59:24;;;;;;;7.30;4.40;;;;;;;18.52;67.73;99867.41;1821973;77;22245;-60
2021/06/14 04:02:17;;;;;;;8.20;5.03;;;;;;;18.55;67.51;99868.09;1811753;77;22283;-59
2021/06/14 04:04:54;;;;;;;9.88;4.97;;;;;;;18.56;67.47;99868.48;1823818;77;22195;-57
2021/06/14 04:07:25;;;;;;;9.40;4.72;;;;;;;18.58;67.54;99875.08;1816046;77;22194;-60
2021/06/14 04:10:12;;;;;;;8.65;4.85;;;;;;;18.56;67.29;99875.64;1771309;80;21671;-58
2021/06/14 04:12:45;;;;;;;9.43;5.72;;;;;;;18.65;67.29;99881.81;1809068;77;22598;-57
2021/06/14 04:15:18;;;;;;;10.65;5.90;;;;;;;18.55;67.62;99891.23;1809980;77;22214;-57
2021/06/14 04:17:51;;;;;;;10.23;5.50;;;;;;;18.55;67.46;99894.75;1829927;77;22180;-59
2021/06/14 04:20:38;;;;;;;7.83;4.60;;;;;;;18.59;67.25;99900.79;1771982;80;21159;-59
2021/06/14 04:23:11;;;;;;;11.28;5.20;;;;;;;18.65;67.22;99899.59;1834470;77;22634;-60
2021/06/14 04:25:44;;;;;;;11.65;4.83;;;;;;;18.63;67.23;99891.69;1808662;77;22202;-60
2021/06/14 04:28:17;;;;;;;10.98;5.25;;;;;;;18.58;67.50;99883.92;1798532;77;22184;-60
2021/06/14 04:30:50;;;;;;;10.23;5.30;;;;;;;18.65;67.42;99878.27;1811800;77;22183;-60
2021/06/14 04:33:23;;;;;;;12.60;5.53;;;;;;;18.73;67.17;99888.05;1821185;77;22229;-57
2021/06/14 04:35:56;;;;;;;10.20;5.05;;;;;;;18.72;67.11;99888.99;1794731;77;22236;-57
2021/06/14 04:38:31;;;;;;;8.70;4.72;;;;;;;18.73;67.19;99894.25;1830909;77;22205;-60
2021/06/14 04:41:17;;;;;;;9.90;5.10;;;;;;;18.73;67.21;99895.59;1751527;80;21163;-62
2021/06/14 04:43:50;;;;;;;9.50;5.70;;;;;;;18.78;67.17;99903.78;1852840;77;22614;-57
2021/06/14 04:46:23;;;;;;;6.70;4.33;;;;;;;18.82;66.98;99910.67;1815950;77;22233;-60
2021/06/14 04:48:57;;;;;;;7.92;4.42;;;;;;;18.82;67.07;99912.88;1831728;77;22564;-60
2021/06/14 04:51:30;;;;;;;7.62;3.95;;;;;;;18.83;66.97;99913.27;1812144;77;22225;-60
2021/06/14 04:54:15;;;;;;;9.75;5.03;;;;;;;18.78;67.11;99923.77;1767689;80;21292;-60
2021/06/14 04:56:48;;;;;;;6.55;4.08;;;;;;;18.88;66.83;99924.55;1823111;77;22159;-60
2021/06/14 04:59:22;;;;;;;5.55;3.85;;;;;;;18.92;66.83;99926.56;1808491;77;22202;-60
2021/06/14 05:01:55;;;;;;;6.55;3.62;;;;;;;18.84;66.87;99919.45;1822338;77;22210;-59
2021/06/14 05:04:28;;;;;;;6.72;4.20;;;;;;;18.92;66.82;99918.56;1807411;77;22221;-61
2021/06/14 05:07:14;;;;;;;6.08;3.92;;;;;;;18.93;66.67;99913.62;1775277;80;21569;-58
2021/06/14 05:09:47;;;;;;;6.10;3.92;;;;;;;18.96;66.69;99903.31;1807976;77;22198;-58
2021/06/14 05:12:20;;;;;;;8.35;3.85;;;;;;;18.99;66.72;99907.11;1821044;77;22185;-60
2021/06/14 05:14:53;;;;;;;9.30;3.90;;;;;;;19.00;66.88;99911.05;1806512;77;22210;-60
2021/06/14 05:17:26;;;;;;;8.28;4.08;;;;;;;19.09;66.90;99915.48;1815046;77;22179;-61
2021/06/14 05:19:59;;;;;;;6.53;4.03;;;;;;;19.13;66.81;99921.05;1802755;77;22571;-58
2021/06/14 05:22:33;;;;;;;7.12;4.17;;;;;;;19.12;66.80;99922.84;1818583;77;22637;-60
2021/06/14 05:25:07;;;;;;;6.05;3.02;;;;;;;19.15;66.49;99921.33;1805420;77;22194;-60
2021/06/14 05:27:40;;;;;;;6.45;3.95;;;;;;;19.14;66.43;99924.95;1818903;77;22588;-60
2021/06/14 05:30:15;;;;;;;5.15;3.65;;;;;;;19.14;66.46;99928.95;1804117;77;22649;-57
2021/06/14 05:33:00;;;;;;;6.97;4.00;;;;;;;19.13;66.29;99925.05;1743900;81;21637;-62
2021/06/14 05:35:34;;;;;;;6.97;3.65;;;;;;;19.09;66.04;99919.48;1806620;77;22650;-60
2021/06/14 05:38:07;;;;;;;6.70;3.87;;;;;;;19.05;66.27;99916.60;1792530;77;23211;-57
2021/06/14 05:40:40;;;;;;;5.80;3.25;;;;;;;19.05;66.33;99929.94;1794074;77;22239;-57
2021/06/14 05:43:14;;;;;;;5.67;3.58;;;;;;;18.95;66.58;99938.40;1834391;77;22179;-60
2021/06/14 05:45:47;;;;;;;7.50;3.62;;;;;;;18.97;66.66;99937.03;1803133;77;22217;-59
2021/06/14 05:48:34;;;;;;;7.62;3.52;;;;;;;18.95;66.51;99943.73;1734010;81;21127;-59
2021/06/14 05:51:07;;;;;;;7.28;3.45;;;;;;;19.09;66.21;99944.83;1791900;77;22221;-59
2021/06/14 05:53:40;;;;;;;5.90;3.80;;;;;;;19.10;66.08;99949.22;1829719;77;22622;-58
2021/06/14 05:56:15;;;;;;;7.87;4.10;;;;;;;19.09;66.20;99944.34;1776408;77;22199;-58
2021/06/14 05:58:49;;;;;;;8.78;3.60;;;;;;;19.09;66.33;99948.34;1827026;77;23209;-57
2021/06/14 06:01:22;;;;;;;6.20;3.42;;;;;;;19.06;66.16;99940.50;1805729;77;22159;-58
2021/06/14 06:03:55;;;;;;;8.25;3.83;;;;;;;19.02;66.30;99941.16;1814912;77;22174;-60
2021/06/14 06:06:41;;;;;;;6.55;3.50;;;;;;;18.96;66.55;99946.82;1746799;81;21238;-59
2021/06/14 06:09:14;;;;;;;5.22;3.50;;;;;;;19.03;66.59;99951.34;1825808;77;22595;-60
2021/06/14 06:11:47;;;;;;;8.00;3.92;;;;;;;19.03;66.49;99960.67;1819052;77;22582;-57
2021/06/14 06:14:21;;;;;;;9.50;3.85;;;;;;;19.04;66.42;99954.88;1809667;77;22193;-57
2021/06/14 06:16:54;;;;;;;5.72;3.47;;;;;;;19.02;66.30;99953.16;1808585;77;22203;-60
2021/06/14 06:19:40;;;;;;;7.30;4.00;;;;;;;18.98;66.46;99954.27;1703047;83;21177;-58
2021/06/14 06:22:14;;;;;;;5.67;3.50;;;;;;;19.00;66.34;99957.71;1816311;77;22622;-60
2021/06/14 06:24:47;;;;;;;5.87;3.40;;;;;;;18.97;66.11;99959.70;1803005;77;22215;-57
2021/06/14 06:27:20;;;;;;;7.08;3.72;;;;;;;18.96;66.40;99957.97;1828040;77;22701;-60
2021/06/14 06:29:53;;;;;;;5.78;3.25;;;;;;;18.84;66.59;99960.77;1820806;77;22658;-57
2021/06/14 06:32:27;;;;;;;5.15;3.50;;;;;;;18.84;66.73;99964.77;1818004;77;22211;-58
2021/06/14 06:35:13;;;;;;;6.60;3.15;;;;;;;18.91;66.59;99970.17;1758843;80;21187;-60
2021/06/14 06:37:46;;;;;;;5.17;3.30;;;;;;;19.04;66.42;99970.39;1790636;77;22173;-58
2021/06/14 06:40:19;;;;;;;6.45;2.92;;;;;;;19.07;66.34;99969.39;1813300;77;22198;-57
2021/06/14 06:42:54;;;;;;;6.83;3.58;;;;;;;19.11;66.28;99967.79;1810145;77;22138;-60
2021/06/14 06:45:39;;;;;;;7.47;3.47;;;;;;;19.13;66.40;99969.06;1726032;83;21307;-61
2021/06/14 06:48:12;;;;;;;5.70;3.00;;;;;;;19.18;66.75;99967.00;1840351;77;22170;-60
2021/06/14 06:50:46;;;;;;;5.90;3.25;;;;;;;19.30;66.51;99968.13;1797186;77;22179;-60
2021/06/14 06:53:19;;;;;;;5.85;3.17;;;;;;;19.37;66.51;99973.52;1832864;77;22179;-60
2021/06/14 06:55:52;;;;;;;4.92;3.30;;;;;;;19.47;66.75;99973.36;1827440;77;22161;-60
2021/06/14 06:58:26;;;;;;;5.78;3.12;;;;;;;19.59;66.69;99974.97;1843512;77;22123;-60
2021/06/14 07:01:11;;;;;;;5.10;3.70;;;;;;;19.68;66.86;99983.80;1781292;78;21118;-59
2021/06/14 07:03:45;;;;;;;6.37;3.25;;;;;;;19.84;65.99;99977.59;1814260;77;22151;-60
2021/06/14 07:06:19;;;;;;;4.03;2.87;;;;;;;19.96;65.88;99975.55;1790296;77;22232;-60
2021/06/14 07:09:05;;;;;;;6.05;3.47;;;;;;;20.02;65.97;99985.88;1762881;80;21601;-58
2021/06/14 07:11:39;;;;;;;4.72;2.50;;;;;;;20.15;65.63;99980.67;1821323;77;22163;-60
2021/06/14 07:14:12;;;;;;;3.25;2.40;;;;;;;20.23;65.03;99988.27;1846880;77;22163;-60
2021/06/14 07:16:58;;;;;;;4.35;2.80;;;;;;;20.25;64.62;99989.03;1764530;81;21138;-58
2021/06/14 07:19:31;;;;;;;3.98;2.35;;;;;;;20.47;64.81;99997.97;1820691;77;22183;-57
2021/06/14 07:22:04;;;;;;;4.42;2.67;;;;;;;20.55;64.96;99999.30;1834328;77;22180;-57
2021/06/14 07:24:37;;;;;;;4.10;2.47;;;;;;;20.79;64.72;99999.66;1827581;77;23288;-59
2021/06/14 07:27:24;;;;;;;3.83;2.50;;;;;;;20.89;63.87;99999.48;1758147;81;21157;-61
2021/06/14 07:29:57;;;;;;;4.67;2.08;;;;;;;21.09;63.53;99994.23;1809139;77;22623;-59
2021/06/14 07:32:36;;;;;;;3.83;2.62;;;;;;;21.24;63.20;99999.09;1808619;77;22190;-57
2021/06/14 07:35:10;;;;;;;3.08;2.10;;;;;;;21.39;62.90;100005.77;1817354;77;22218;-57
2021/06/14 07:37:56;;;;;;;3.90;2.10;;;;;;;21.58;62.43;100008.62;1748126;81;21285;-60
2021/06/14 07:40:30;;;;;;;3.25;2.17;;;;;;;21.69;61.62;100007.00;1814565;77;22194;-60
2021/06/14 07:43:05;;;;;;;4.17;2.20;;;;;;;21.77;60.81;100008.32;1805940;77;22226;-60
2021/06/14 07:45:39;;;;;;;3.62;2.00;;;;;;;21.80;60.43;100003.61;1811054;77;22202;-60
2021/06/14 07:48:25;;;;;;;5.50;2.20;;;;;;;21.72;59.37;100013.11;1761414;81;21111;-61
2021/06/14 07:50:58;;;;;;;3.58;2.10;;;;;;;21.69;59.16;100007.00;1807083;77;22206;-60
2021/06/14 07:53:31;;;;;;;3.95;1.92;;;;;;;21.67;59.34;100008.03;1810624;77;22224;-60
2021/06/14 07:56:06;;;;;;;3.33;2.00;;;;;;;21.64;58.97;100008.23;1785547;77;22185;-60
2021/06/14 07:58:53;;;;;;;4.65;2.00;;;;;;;21.59;58.78;100012.52;1731439;83;21142;-61
2021/06/14 08:01:26;;;;;;;3.22;1.90;;;;;;;21.62;59.03;100013.70;1805246;77;22231;-60
2021/06/14 08:03:59;;;;;;;3.50;1.92;;;;;;;21.68;58.83;100020.47;1831335;77;22138;-57
2021/06/14 08:06:32;;;;;;;4.08;1.90;;;;;;;21.56;58.99;100022.09;1818379;77;22181;-57
2021/06/14 08:09:09;;;;;;;3.55;2.00;;;;;;;21.62;58.52;100030.27;1849753;77;22570;-57
2021/06/14 08:11:55;;;;;;;3.12;1.80;;;;;;;21.59;57.85;100023.73;1759962;80;21162;-62
2021/06/14 08:14:28;;;;;;;5.72;1.90;;;;;;;21.49;58.62;100026.12;1835024;77;22201;-57
2021/06/14 08:17:03;;;;;;;3.50;1.70;;;;;;;21.55;58.34;100029.74;1836742;77;22190;-61
2021/06/14 08:19:43;;;;;;;3.37;1.67;;;;;;;21.60;58.02;100039.69;1819375;77;22194;-61
2021/06/14 08:27:46;;;;;;;3.27;1.80;;;;;;;22.14;57.57;100036.20;1834467;77;22140;-57
2021/06/14 08:30:22;;;;;;;3.65;1.45;;;;;;;22.19;57.44;100033.70;1817130;77;22171;-57
2021/06/14 08:33:08;;;;;;;2.70;1.70;;;;;;;22.21;57.02;100038.48;1740636;81;21160;-58
2021/06/14 08:35:41;;;;;;;3.52;1.32;;;;;;;22.26;56.66;100025.17;1811435;77;22194;-57
2021/06/14 08:38:15;;;;;;;2.30;1.45;;;;;;;22.27;56.63;100022.88;1852735;77;22571;-61
2021/06/14 08:40:48;;;;;;;2.98;1.87;;;;;;;22.48;56.57;100034.47;1821817;77;22219;-61
2021/06/14 08:43:21;;;;;;;2.75;1.30;;;;;;;22.62;56.96;100037.54;1852808;77;22602;-61
2021/06/14 08:46:07;;;;;;;3.95;1.50;;;;;;;22.89;56.88;100047.35;1752026;81;21626;-58
2021/06/14 08:48:41;;;;;;;2.27;1.45;;;;;;;23.20;55.68;100049.69;1836298;77;22209;-57
2021/06/14 08:51:14;;;;;;;2.00;1.40;;;;;;;23.41;54.62;100045.98;1805689;77;22199;-57
2021/06/14 08:53:53;;;;;;;6.55;3.08;;;;;;;23.69;54.85;100044.86;1831376;77;22143;-57
2021/06/14 08:56:27;;;;;;;3.77;1.92;;;;;;;24.03;53.66;100042.42;1819483;77;22182;-58
2021/06/14 08:59:00;;;;;;;2.55;1.40;;;;;;;24.49;53.96;100036.73;1825832;77;23535;-61
2021/06/14 09:01:46;;;;;;;2.17;1.30;;;;;;;25.00;53.27;100049.48;1762170;81;21268;-63
2021/06/14 09:04:19;;;;;;;1.27;1.00;;;;;;;25.63;51.96;100038.23;1848846;77;22163;-62
2021/06/14 09:06:53;;;;;;;2.15;1.00;;;;;;;26.02;51.63;100028.34;1815054;77;22150;-62
2021/06/14 09:09:38;;;;;;;2.42;1.20;;;;;;;26.22;50.14;100037.50;1763639;80;21292;-59
2021/06/14 09:12:12;;;;;;;3.50;1.25;;;;;;;26.39;48.81;100027.14;1846545;77;22392;-58
2021/06/14 09:14:46;;;;;;;2.30;0.98;;;;;;;26.70;48.31;100028.55;1830991;77;22201;-58
2021/06/14 09:17:19;;;;;;;2.05;0.98;;;;;;;26.76;46.16;100040.17;1828520;77;22137;-61
2021/06/14 09:20:13;;;;;;;1.92;1.00;;;;;;;26.46;46.04;100044.52;1742752;81;21135;-62
2021/06/14 09:22:47;;;;;;;1.95;0.95;;;;;;;26.21;46.68;100043.03;1852810;77;22163;-61
2021/06/14 09:25:20;;;;;;;2.20;1.00;;;;;;;26.02;46.91;100055.81;1802922;77;22211;-61
2021/06/14 09:28:10;;;;;;;2.08;1.22;;;;;;;25.91;47.25;100049.94;1719675;82;21150;-61
2021/06/14 09:30:43;;;;;;;3.42;1.10;;;;;;;25.91;47.88;100053.98;1811832;77;22229;-58
2021/06/14 09:33:26;;;;;;;4.97;1.20;;;;;;;26.09;48.91;100046.20;1830813;77;22561;-61
2021/06/14 09:36:07;;;;;;;2.05;1.00;;;;;;;26.57;48.46;100049.84;1808020;77;22170;-58
2021/06/14 09:38:40;;;;;;;6.22;1.40;;;;;;;26.97;47.64;100033.92;1840276;77;22214;-58
2021/06/14 09:41:16;;;;;;;1.77;0.85;;;;;;;27.24;47.23;100044.15;1803640;77;22230;-60
2021/06/14 09:43:50;;;;;;;2.98;1.10;;;;;;;27.41;45.32;100045.35;1818791;77;27949;-58
2021/06/14 09:46:38;;;;;;;1.17;0.60;;;;;;;27.36;44.03;100042.71;1698860;84;21145;-59
2021/06/14 09:49:17;;;;;;;1.00;0.57;;;;;;;27.70;44.99;100039.23;1802937;77;22143;-58
2021/06/14 09:51:51;;;;;;;1.70;0.82;;;;;;;28.04;44.03;100046.97;1843069;77;22206;-62
2021/06/14 09:54:29;;;;;;;2.20;0.98;;;;;;;28.39;44.66;100043.87;1829025;77;22642;-61
2021/06/14 09:57:05;;;;;;;2.62;1.00;;;;;;;28.48;44.20;100045.73;1834411;77;22164;-61
2021/06/14 09:59:40;;;;;;;2.05;0.82;;;;;;;28.56;41.86;100044.52;1805892;77;29179;-61
2021/06/14 10:02:17;;;;;;;1.05;0.80;;;;;;;28.57;42.20;100049.41;1821990;77;22583;-61
2021/06/14 10:04:52;;;;;;;11.10;7.37;;;;;;;28.45;42.12;100051.42;1823743;77;22178;-61
2021/06/14 10:07:49;;;;;;;2.67;1.77;;;;;;;28.46;42.75;100058.55;1761494;81;21127;-62
2021/06/14 10:10:27;;;;;;;2.85;1.30;;;;;;;28.64;42.04;100048.72;1802826;77;22198;-61
2021/06/14 10:13:01;;;;;;;1.82;0.70;;;;;;;28.60;40.80;100053.19;1834404;77;22148;-61
2021/06/14 10:15:37;;;;;;;2.58;0.80;;;;;;;28.34;41.37;100050.56;1803773;77;22688;-62
2021/06/14 10:18:11;;;;;;;1.67;0.70;;;;;;;28.13;41.30;100050.70;1841687;77;20255;-61
2021/06/14 10:20:44;;;;;;;1.62;0.95;;;;;;;28.09;42.30;100058.70;1807425;77;22198;-62
2021/06/14 10:23:17;;;;;;;3.20;0.60;;;;;;;28.27;42.45;100055.34;1852797;77;22175;-62
2021/06/14 10:26:04;;;;;;;1.27;0.72;;;;;;;28.27;42.19;100061.59;1798484;78;21398;-62
2021/06/14 10:28:37;;;;;;;1.42;0.70;;;;;;;28.34;42.78;100054.63;1806710;77;22156;-62
2021/06/14 10:31:10;;;;;;;2.22;1.02;;;;;;;28.32;42.36;100056.62;1788186;77;22205;-61
2021/06/14 10:33:47;;;;;;;2.90;1.00;;;;;;;27.98;41.63;100062.41;1828545;77;22163;-62
2021/06/14 10:36:34;;;;;;;2.30;0.72;;;;;;;27.59;42.50;100064.53;1758395;80;21147;-63
2021/06/14 10:39:09;;;;;;;1.20;0.72;;;;;;;27.33;42.97;100060.06;1828263;77;22208;-62
2021/06/14 10:41:44;;;;;;;2.05;0.90;;;;;;;27.32;44.35;100063.75;1852043;77;22183;-61
2021/06/14 10:44:17;;;;;;;2.22;0.80;;;;;;;27.41;43.62;100060.21;1831155;77;22179;-62
2021/06/14 10:46:51;;;;;;;1.15;0.70;;;;;;;27.48;43.44;100060.58;1810967;77;22581;-62
2021/06/14 10:49:24;;;;;;;2.12;0.95;;;;;;;27.51;43.41;100066.19;1816627;77;22234;-62
2021/06/14 10:52:01;;;;;;;4.65;2.80;;;;;;;27.69;44.14;100070.44;1852743;77;22540;-61
2021/06/14 10:54:41;;;;;;;3.17;1.77;;;;;;;28.02;43.86;100064.34;1820676;77;22218;-61
2021/06/14 10:57:30;;;;;;;3.35;1.77;;;;;;;28.09;43.02;100061.92;1741061;81;21152;-59
2021/06/14 11:00:22;;;;;;;5.00;2.95;;;;;;;28.55;42.55;100061.75;1820674;77;22218;-62
2021/06/14 11:03:02;;;;;;;4.03;2.08;;;;;;;29.09;41.21;100054.48;1835988;77;22221;-62
2021/06/14 11:05:48;;;;;;;5.45;3.52;;;;;;;29.30;41.20;100043.43;1792650;78;21402;-62
2021/06/14 11:08:23;;;;;;;3.05;1.87;;;;;;;29.47;40.88;100039.10;1834382;77;22199;-62
2021/06/14 11:11:04;;;;;;;3.42;1.62;;;;;;;29.44;40.45;100046.66;1793193;77;28074;-62
2021/06/14 11:13:50;;;;;;;1.52;0.90;;;;;;;29.06;40.05;100038.02;1826815;77;22602;-62
2021/06/14 11:16:29;;;;;;;1.60;0.80;;;;;;;28.65;39.62;100041.43;1820415;77;22598;-59
2021/06/14 11:19:04;;;;;;;1.12;0.70;;;;;;;28.40;40.88;100049.16;1834423;77;22544;-59
2021/06/14 11:21:57;;;;;;;3.00;1.22;;;;;;;28.19;41.08;100052.02;1818153;77;22265;-58
2021/06/14 11:24:36;;;;;;;3.77;2.12;;;;;;;28.15;42.09;100049.23;1827302;77;22207;-58
2021/06/14 11:27:10;;;;;;;2.80;1.62;;;;;;;28.18;41.91;100036.77;1833430;77;22623;-58
2021/06/14 11:29:57;;;;;;;2.95;1.77;;;;;;;28.28;42.38;100047.08;1769946;80;21125;-60
2021/06/14 11:32:35;;;;;;;2.62;1.30;;;;;;;28.40;42.49;100045.10;1827815;77;22163;-64
2021/06/14 11:35:09;;;;;;;4.12;1.35;;;;;;;28.45;42.35;100046.02;1808201;77;22237;-61
2021/06/14 11:37:55;;;;;;;1.67;1.10;;;;;;;28.36;41.70;100045.03;1761822;81;21150;-63
2021/06/14 11:40:33;;;;;;;1.77;0.98;;;;;;;28.11;42.02;100043.19;1812067;77;22218;-60
2021/06/14 11:43:10;;;;;;;4.08;1.77;;;;;;;28.01;42.40;100045.06;1834358;77;22164;-58
2021/06/14 11:45:48;;;;;;;3.45;1.47;;;;;;;27.91;42.76;100038.26;1799160;77;22693;-59
2021/06/14 11:48:34;;;;;;;3.25;1.70;;;;;;;27.79;42.72;100042.94;1765388;80;21583;-60
2021/06/14 11:51:10;;;;;;;4.42;2.22;;;;;;;27.86;43.39;100039.17;1800594;77;22158;-58
2021/06/14 11:53:53;;;;;;;3.60;1.90;;;;;;;27.91;43.02;100035.56;1852014;77;22191;-58
2021/06/14 11:56:38;;;;;;;3.45;1.25;;;;;;;28.02;43.00;100045.41;1792656;80;21154;-60
2021/06/14 11:59:32;;;;;;;1.30;0.95;;;;;;;28.19;42.75;100044.73;1820400;77;22215;-58
2021/06/14 12:02:21;;;;;;;4.33;1.37;;;;;;;28.16;42.21;100041.47;1834506;77;22171;-59
2021/06/14 12:05:11;;;;;;;1.50;0.78;;;;;;;28.04;42.53;100043.39;1748513;81;21173;-59
2021/06/14 12:07:43;;;;;;;1.62;1.00;;;;;;;27.90;42.88;100041.48;1834178;77;22185;-58
2021/06/14 12:10:18;;;;;;;1.57;1.00;;;;;;;27.80;43.25;100040.59;1814911;77;22614;-59
2021/06/14 12:13:10;;;;;;;2.77;1.65;;;;;;;27.75;43.93;100044.21;1829185;77;22178;-59
2021/06/14 12:15:58;;;;;;;2.62;1.32;;;;;;;27.86;43.96;100049.51;1808589;77;22170;-59
2021/06/14 12:18:45;;;;;;;4.08;1.40;;;;;;;27.96;43.37;100053.58;1761656;81;21167;-60
2021/06/14 12:21:18;;;;;;;3.33;1.67;;;;;;;28.21;42.87;100044.61;1817463;77;22602;-58
2021/06/14 12:23:51;;;;;;;4.15;1.30;;;;;;;28.37;43.01;100050.80;1832562;77;22151;-58